Time;durP1;ratioP1;P1;durP2;ratioP2;P2;SDS_P1;SDS_P2;PMS_P1;PMS_P2;Temp;Humidity;BMP_temperature;BMP_pressure;BME280_temperature;BME280_humidity;BME280_pressure;Samples;Min_cycle;Max_cycle;Signal;HPM_P1;HPM_P2
2023/12/02 00:00:31;;;;;;;;;;;;;;;20.57;38.93;100373.09;2071449;28;2258;-67
2023/12/02 00:01:33;;;;;;;;;;;;;;;20.57;38.96;100364.47;2071248;28;1865;-67
2023/12/02 00:02:34;;;;;;;;;;;;;;;20.56;38.93;100366.63;2071276;28;1866;-67
2023/12/02 00:03:36;;;;;;;;;;;;;;;20.57;38.96;100361.59;2071006;28;1956;-67
2023/12/02 00:04:37;;;;;;;;;;;;;;;20.57;38.89;100362.34;2069532;28;2274;-67
2023/12/02 00:05:39;;;;;;;;;;;;;;;20.57;38.94;100361.59;2071541;28;1933;-67
2023/12/02 00:06:41;;;;;;;;;;;;;;;20.57;38.96;100358.72;2068872;28;1841;-67
2023/12/02 00:07:42;;;;;;;;;;;;;;;20.57;39.00;100362.34;2070670;28;1719;-67
2023/12/02 00:08:44;;;;;;;;;;;;;;;20.57;38.73;100362.34;2069296;28;1977;-67
2023/12/02 00:09:45;;;;;;;;;;;;;;;20.58;38.72;100360.22;2068984;28;1925;-67
2023/12/02 00:10:47;;;;;;;;;;;;;;;20.58;38.60;100360.22;2068201;28;2874;-71
2023/12/02 00:11:51;;;;;;;;;;;;;;;20.57;38.75;100359.47;2069137;28;1850;-71
2023/12/02 00:12:53;;;;;;;;;;;;;;;20.58;38.74;100357.34;2071766;28;1934;-71
2023/12/02 00:13:54;;;;;;;;;;;;;;;20.57;38.73;100347.22;2070393;28;1952;-71
2023/12/02 00:14:56;;;;;;;;;;;;;;;20.57;38.68;100352.97;2069282;28;1857;-67
2023/12/02 00:15:57;;;;;;;;;;;;;;;20.58;38.95;100357.34;2068551;28;1857;-67
2023/12/02 00:16:59;;;;;;;;;;;;;;;20.56;38.95;100357.97;2068729;28;1960;-66
2023/12/02 00:18:00;;;;;;;;;;;;;;;20.57;38.82;100352.97;2071697;28;1869;-67
2023/12/02 00:19:02;;;;;;;;;;;;;;;20.57;38.98;100350.09;2071398;28;2075;-67
2023/12/02 00:20:04;;;;;;;;;;;;;;;20.57;38.89;100352.97;2072462;28;1838;-66
2023/12/02 00:21:06;;;;;;;;;;;;;;;20.56;38.94;100352.22;2071568;28;1743;-66
2023/12/02 00:22:07;;;;;;;;;;;;;;;20.56;38.90;100346.47;2070916;28;1779;-66
2023/12/02 00:23:09;;;;;;;;;;;;;;;20.56;38.88;100351.47;2070680;28;1908;-66
2023/12/02 00:24:10;;;;;;;;;;;;;;;20.56;39.08;100354.34;2070576;28;1865;-66
2023/12/02 00:25:12;;;;;;;;;;;;;;;20.55;38.85;100361.47;2070209;28;1897;-67
2023/12/02 00:26:13;;;;;;;;;;;;;;;20.54;38.95;100348.50;2070647;28;1964;-66
2023/12/02 00:27:16;;;;;;;;;;;;;;;20.53;38.86;100341.31;2070962;28;1928;-66
2023/12/02 00:28:20;;;;;;;;;;;;;;;20.53;38.83;100347.06;2069484;28;1900;-66
2023/12/02 00:29:21;;;;;;;;;;;;;;;20.53;39.01;100347.06;2070211;28;1909;-66
2023/12/02 00:30:23;;;;;;;;;;;;;;;20.51;38.91;100348.44;2069192;28;1870;-67
2023/12/02 00:31:24;;;;;;;;;;;;;;;20.51;38.88;100348.44;2071646;28;1845;-67
2023/12/02 00:32:26;;;;;;;;;;;;;;;20.51;38.92;100345.56;2067336;28;2605;-71
2023/12/02 00:33:30;;;;;;;;;;;;;;;20.52;38.89;100340.53;2069181;28;2978;-71
2023/12/02 00:34:32;;;;;;;;;;;;;;;20.51;38.98;100345.56;2070928;28;1937;-71
2023/12/02 00:35:33;;;;;;;;;;;;;;;20.51;38.97;100334.06;2069994;28;2132;-71
2023/12/02 00:36:35;;;;;;;;;;;;;;;20.50;38.97;100338.34;2069691;28;1890;-67
2023/12/02 00:37:37;;;;;;;;;;;;;;;20.51;38.80;100339.06;2070771;28;1889;-67
2023/12/02 00:38:38;;;;;;;;;;;;;;;20.51;38.93;100339.81;2068423;28;1894;-66
2023/12/02 00:39:40;;;;;;;;;;;;;;;20.50;38.83;100341.22;2070610;28;1892;-66
2023/12/02 00:40:41;;;;;;;;;;;;;;;20.51;38.98;100345.56;2067713;28;1877;-66
2023/12/02 00:41:43;;;;;;;;;;;;;;;20.51;38.89;100345.56;2071723;28;1845;-66
2023/12/02 00:42:44;;;;;;;;;;;;;;;20.51;38.85;100339.81;2070519;28;1869;-67
2023/12/02 00:43:46;;;;;;;;;;;;;;;20.52;38.82;100346.28;2068354;28;1913;-66
2023/12/02 00:44:47;;;;;;;;;;;;;;;20.52;38.88;100340.53;2069265;28;1830;-67
2023/12/02 00:45:49;;;;;;;;;;;;;;;20.52;38.93;100346.28;2069319;28;1822;-66
2023/12/02 00:46:50;;;;;;;;;;;;;;;20.51;38.88;100351.31;2071457;28;1897;-67
2023/12/02 00:47:52;;;;;;;;;;;;;;;20.53;38.87;100349.94;2071384;28;1826;-66
2023/12/02 00:48:54;;;;;;;;;;;;;;;20.52;38.98;100340.53;2069384;28;2016;-66
2023/12/02 00:49:55;;;;;;;;;;;;;;;20.51;38.75;100342.69;2067904;28;1865;-67
2023/12/02 00:50:57;;;;;;;;;;;;;;;20.51;38.73;100344.84;2067493;28;1837;-66
2023/12/02 00:51:58;;;;;;;;;;;;;;;20.50;38.81;100346.97;2067939;28;1885;-66
2023/12/02 00:53:00;;;;;;;;;;;;;;;20.51;38.84;100351.31;2068716;28;2437;-71
2023/12/02 00:54:02;;;;;;;;;;;;;;;20.50;38.97;100349.84;2070131;28;3032;-71
2023/12/02 00:55:06;;;;;;;;;;;;;;;20.50;38.91;100349.84;2070711;28;1888;-71
2023/12/02 00:56:08;;;;;;;;;;;;;;;20.50;38.77;100344.09;2070408;28;1810;-71
2023/12/02 00:57:09;;;;;;;;;;;;;;;20.51;38.90;100345.56;2070473;28;1905;-67
2023/12/02 00:58:11;;;;;;;;;;;;;;;20.50;38.95;100338.34;2070582;28;1877;-66
2023/12/02 00:59:13;;;;;;;;;;;;;;;20.50;38.94;100338.34;2071574;28;1881;-71
2023/12/02 01:00:15;;;;;;;;;;;;;;;20.49;38.74;100336.84;2071176;28;2152;-65
2023/12/02 01:01:17;;;;;;;;;;;;;;;20.49;38.97;100339.72;2071505;28;1845;-65
2023/12/02 01:02:18;;;;;;;;;;;;;;;20.49;38.83;100344.75;2067407;28;1806;-62
2023/12/02 01:03:20;;;;;;;;;;;;;;;20.48;39.06;100341.16;2070361;28;1806;-62
2023/12/02 01:04:22;;;;;;;;;;;;;;;20.49;38.87;100341.88;2067985;28;1819;-62
2023/12/02 01:05:24;;;;;;;;;;;;;;;20.47;38.87;100333.91;2070885;28;1854;-63
2023/12/02 01:06:25;;;;;;;;;;;;;;;20.47;38.90;100338.91;2070929;28;1916;-62
2023/12/02 01:07:27;;;;;;;;;;;;;;;20.47;38.92;100338.91;2070599;28;2136;-62
2023/12/02 01:08:29;;;;;;;;;;;;;;;20.47;38.95;100339.66;2070457;28;1790;-63
2023/12/02 01:09:30;;;;;;;;;;;;;;;20.47;38.80;100339.66;2066851;28;1914;-62
2023/12/02 01:10:32;;;;;;;;;;;;;;;20.47;38.87;100348.28;2069895;28;1762;-62
2023/12/02 01:11:33;;;;;;;;;;;;;;;20.47;39.00;100348.28;2068370;28;1877;-62
2023/12/02 01:12:35;;;;;;;;;;;;;;;20.47;38.79;100350.41;2069405;28;2796;-67
2023/12/02 01:13:37;;;;;;;;;;;;;;;20.46;39.14;100351.84;2071356;28;1908;-67
2023/12/02 01:14:38;;;;;;;;;;;;;;;20.46;38.95;100361.19;2067247;28;1912;-66
2023/12/02 01:15:40;;;;;;;;;;;;;;;20.47;39.06;100356.91;2070708;28;1728;-62
2023/12/02 01:16:41;;;;;;;;;;;;;;;20.47;38.97;100362.66;2069791;28;1889;-62
2023/12/02 01:17:43;;;;;;;;;;;;;;;20.47;39.01;100362.66;2069055;28;1857;-62
2023/12/02 01:18:44;;;;;;;;;;;;;;;20.48;38.98;100358.41;2070684;28;2242;-62
2023/12/02 01:19:46;;;;;;;;;;;;;;;20.47;38.92;100356.91;2070069;28;2132;-62
2023/12/02 01:20:48;;;;;;;;;;;;;;;20.47;38.99;100370.56;2070702;28;2270;-62
2023/12/02 01:21:49;;;;;;;;;;;;;;;20.46;38.90;100364.06;2071474;28;2214;-62
2023/12/02 01:22:51;;;;;;;;;;;;;;;20.47;38.76;100356.91;2070707;28;2223;-62
2023/12/02 01:23:52;;;;;;;;;;;;;;;20.47;38.91;100348.28;2066648;28;1786;-62
2023/12/02 01:24:54;;;;;;;;;;;;;;;20.46;38.93;100349.69;2069754;28;1849;-62
2023/12/02 01:25:56;;;;;;;;;;;;;;;20.47;38.97;100361.94;2069630;28;1794;-61
2023/12/02 01:26:57;;;;;;;;;;;;;;;20.46;38.73;100354.72;2066947;28;1877;-62
2023/12/02 01:27:59;;;;;;;;;;;;;;;20.47;38.94;100356.19;2071483;28;1830;-62
2023/12/02 01:29:00;;;;;;;;;;;;;;;20.47;38.72;100356.91;2071154;28;2116;-62
2023/12/02 01:30:02;;;;;;;;;;;;;;;20.46;38.86;100361.19;2070998;28;2120;-62
2023/12/02 01:31:04;;;;;;;;;;;;;;;20.47;38.82;100368.41;2071169;28;1834;-62
2023/12/02 01:32:05;;;;;;;;;;;;;;;20.47;38.73;100365.53;2068451;28;2873;-68
2023/12/02 01:33:07;;;;;;;;;;;;;;;20.46;38.59;100372.69;2071267;28;1798;-67
2023/12/02 01:34:08;;;;;;;;;;;;;;;20.46;38.96;100372.69;2070751;28;1979;-68
2023/12/02 01:35:10;;;;;;;;;;;;;;;20.45;38.98;100376.97;2069422;28;1959;-67
2023/12/02 01:36:12;;;;;;;;;;;;;;;20.45;38.63;100382.72;2069320;28;2223;-62
2023/12/02 01:37:13;;;;;;;;;;;;;;;20.45;39.02;100376.22;2070409;28;1967;-62
2023/12/02 01:38:15;;;;;;;;;;;;;;;20.45;38.66;100374.09;2071347;28;1837;-62
2023/12/02 01:39:16;;;;;;;;;;;;;;;20.44;38.93;100369.00;2070849;28;1873;-62
2023/12/02 01:40:18;;;;;;;;;;;;;;;20.44;38.98;100364.00;2070206;28;1842;-62
2023/12/02 01:41:19;;;;;;;;;;;;;;;20.44;39.02;100366.88;2068990;28;1947;-62
2023/12/02 01:42:21;;;;;;;;;;;;;;;20.44;39.02;100358.25;2070870;28;1781;-62
2023/12/02 01:43:24;;;;;;;;;;;;;;;20.43;38.91;100351.03;2070569;28;1860;-61
2023/12/02 01:44:26;;;;;;;;;;;;;;;20.43;38.87;100351.03;2068721;28;1958;-62
2023/12/02 01:45:27;;;;;;;;;;;;;;;20.43;38.92;100353.91;2068642;28;1913;-62
2023/12/02 01:46:29;;;;;;;;;;;;;;;20.42;39.02;100352.41;2070639;28;1857;-62
2023/12/02 01:47:31;;;;;;;;;;;;;;;20.44;38.85;100361.13;2069425;28;2062;-62
2023/12/02 01:48:33;;;;;;;;;;;;;;;20.44;38.95;100369.00;2069827;28;1846;-62
2023/12/02 01:49:35;;;;;;;;;;;;;;;20.45;38.84;100358.97;2068464;28;1964;-62
2023/12/02 01:50:36;;;;;;;;;;;;;;;20.45;38.92;100376.22;2068767;28;1770;-63
2023/12/02 01:51:38;;;;;;;;;;;;;;;20.44;38.92;100372.63;2069198;28;2870;-68
2023/12/02 01:52:40;;;;;;;;;;;;;;;20.45;38.88;100371.22;2069424;28;2789;-67
2023/12/02 01:53:41;;;;;;;;;;;;;;;20.44;38.91;100374.75;2070077;28;1857;-66
2023/12/02 01:54:43;;;;;;;;;;;;;;;20.45;38.70;100374.09;2069830;28;1888;-67
2023/12/02 01:55:44;;;;;;;;;;;;;;;20.44;38.71;100375.50;2068910;28;1802;-62
2023/12/02 01:56:46;;;;;;;;;;;;;;;20.44;38.82;100372.63;2071643;28;1869;-62
2023/12/02 01:57:48;;;;;;;;;;;;;;;20.44;38.83;100372.63;2070592;28;2043;-62
2023/12/02 01:58:49;;;;;;;;;;;;;;;20.45;38.73;100362.56;2071062;28;1794;-62
2023/12/02 01:59:52;;;;;;;;;;;;;;;20.45;38.88;100365.47;2070832;28;1885;-61
2023/12/02 02:00:53;;;;;;;;;;;;;;;20.45;38.79;100371.22;2068433;28;1902;-62
2023/12/02 02:01:55;;;;;;;;;;;;;;;20.44;38.72;100375.50;2069161;28;1897;-62
2023/12/02 02:02:57;;;;;;;;;;;;;;;20.44;38.76;100369.75;2069237;28;1841;-62
2023/12/02 02:03:59;;;;;;;;;;;;;;;20.44;38.87;100372.63;2069282;28;1901;-62
2023/12/02 02:05:01;;;;;;;;;;;;;;;20.43;38.92;100368.28;2069876;28;1932;-62
2023/12/02 02:06:03;;;;;;;;;;;;;;;20.43;38.85;100374.03;2070081;28;1898;-62
2023/12/02 02:07:04;;;;;;;;;;;;;;;20.43;38.91;100374.03;2070185;28;1888;-62
2023/12/02 02:08:06;;;;;;;;;;;;;;;20.43;38.71;100373.28;2071010;28;1956;-62
2023/12/02 02:09:08;;;;;;;;;;;;;;;20.42;38.84;100375.41;2070863;28;1873;-62
2023/12/02 02:10:10;;;;;;;;;;;;;;;20.43;38.96;100374.03;2069203;28;1961;-62
2023/12/02 02:11:11;;;;;;;;;;;;;;;20.42;38.95;100371.81;2070033;28;1904;-62
2023/12/02 02:12:13;;;;;;;;;;;;;;;20.43;38.84;100374.03;2069885;28;1841;-62
2023/12/02 02:13:14;;;;;;;;;;;;;;;20.42;38.70;100366.78;2068429;28;2670;-68
2023/12/02 02:14:16;;;;;;;;;;;;;;;20.41;38.90;100376.81;2070117;28;1798;-67
2023/12/02 02:15:17;;;;;;;;;;;;;;;20.41;38.91;100368.19;2069724;28;1908;-67
2023/12/02 02:16:19;;;;;;;;;;;;;;;20.41;38.93;100371.06;2070273;28;1925;-67
2023/12/02 02:17:21;;;;;;;;;;;;;;;20.41;38.87;100373.94;2070859;28;1884;-61
2023/12/02 02:18:22;;;;;;;;;;;;;;;20.41;38.93;100376.06;2067968;28;2020;-62
2023/12/02 02:19:24;;;;;;;;;;;;;;;20.41;38.75;100381.81;2070064;28;1869;-61
2023/12/02 02:20:25;;;;;;;;;;;;;;;20.41;38.74;100379.69;2068971;28;2551;-66
2023/12/02 02:21:27;;;;;;;;;;;;;;;20.41;38.81;100376.81;2068484;28;2550;-65
2023/12/02 02:22:29;;;;;;;;;;;;;;;20.40;38.80;100375.34;2070312;28;1810;-61
2023/12/02 02:23:30;;;;;;;;;;;;;;;20.41;38.82;100359.56;2069438;28;1913;-61
2023/12/02 02:24:32;;;;;;;;;;;;;;;20.40;38.90;100369.59;2070880;28;1797;-61
2023/12/02 02:25:33;;;;;;;;;;;;;;;20.40;38.82;100363.84;2070835;28;2156;-61
2023/12/02 02:26:35;;;;;;;;;;;;;;;20.41;38.67;100365.31;2067946;28;2187;-61
2023/12/02 02:27:36;;;;;;;;;;;;;;;20.41;38.74;100362.44;2068021;28;2245;-61
2023/12/02 02:28:38;;;;;;;;;;;;;;;20.41;38.98;100356.69;2065881;28;1927;-61
2023/12/02 02:29:39;;;;;;;;;;;;;;;20.41;38.89;100365.31;2068654;28;1992;-61
2023/12/02 02:30:41;;;;;;;;;;;;;;;20.41;38.81;100376.81;2068192;28;2125;-61
2023/12/02 02:31:42;;;;;;;;;;;;;;;20.42;38.80;100378.28;2068992;28;1949;-61
2023/12/02 02:32:44;;;;;;;;;;;;;;;20.41;38.76;100371.06;2070449;28;1806;-61
2023/12/02 02:33:45;;;;;;;;;;;;;;;20.42;38.72;100374.69;2067523;28;2852;-66
2023/12/02 02:34:47;;;;;;;;;;;;;;;20.42;38.91;100369.66;2070765;28;2168;-66
2023/12/02 02:35:48;;;;;;;;;;;;;;;20.42;38.69;100372.53;2069065;28;1983;-66
2023/12/02 02:36:50;;;;;;;;;;;;;;;20.42;38.88;100369.66;2067028;28;1853;-66
2023/12/02 02:37:51;;;;;;;;;;;;;;;20.43;38.86;100362.53;2070638;28;1897;-62
2023/12/02 02:38:53;;;;;;;;;;;;;;;20.42;38.71;100352.41;2067304;28;1814;-62
2023/12/02 02:39:55;;;;;;;;;;;;;;;20.42;38.90;100355.28;2070597;28;1755;-62
2023/12/02 02:40:56;;;;;;;;;;;;;;;20.42;38.86;100346.66;2069819;28;1976;-62
2023/12/02 02:41:58;;;;;;;;;;;;;;;20.42;38.82;100340.91;2067269;28;1851;-62
2023/12/02 02:42:59;;;;;;;;;;;;;;;20.44;38.98;100351.75;2070026;28;1861;-62
2023/12/02 02:44:01;;;;;;;;;;;;;;;20.42;38.73;100338.03;2070187;28;1909;-62
2023/12/02 02:45:03;;;;;;;;;;;;;;;20.43;38.94;100345.28;2068454;28;1842;-62
2023/12/02 02:46:05;;;;;;;;;;;;;;;20.43;38.85;100353.91;2070425;28;1841;-62
2023/12/02 02:47:06;;;;;;;;;;;;;;;20.43;38.90;100345.28;2070648;28;1786;-63
2023/12/02 02:48:08;;;;;;;;;;;;;;;20.42;38.77;100343.78;2069069;28;1869;-63
2023/12/02 02:49:09;;;;;;;;;;;;;;;20.42;38.96;100346.66;2069860;28;1802;-62
2023/12/02 02:50:11;;;;;;;;;;;;;;;20.42;38.82;100343.78;2068387;28;1913;-62
2023/12/02 02:51:12;;;;;;;;;;;;;;;20.41;38.93;100342.31;2068972;28;1870;-62
2023/12/02 02:52:14;;;;;;;;;;;;;;;20.41;38.86;100342.31;2071034;28;1923;-62
2023/12/02 02:53:16;;;;;;;;;;;;;;;20.41;38.74;100342.31;2069006;28;1770;-62
2023/12/02 02:54:17;;;;;;;;;;;;;;;20.41;38.85;100333.69;2069841;28;1930;-62
2023/12/02 02:55:19;;;;;;;;;;;;;;;20.41;38.69;100335.81;2067237;28;2609;-68
2023/12/02 02:56:21;;;;;;;;;;;;;;;20.41;38.84;100338.69;2068461;28;1810;-67
2023/12/02 02:57:22;;;;;;;;;;;;;;;20.40;38.76;100335.06;2069992;28;1857;-67
2023/12/02 02:58:24;;;;;;;;;;;;;;;20.40;38.74;100335.06;2070636;28;1819;-66
2023/12/02 02:59:26;;;;;;;;;;;;;;;20.39;38.86;100335.75;2069014;28;1869;-62
2023/12/02 03:00:27;;;;;;;;;;;;;;;20.39;38.92;100332.88;2067958;28;1897;-62
2023/12/02 03:01:29;;;;;;;;;;;;;;;20.40;38.83;100334.34;2067520;28;1956;-62
2023/12/02 03:02:30;;;;;;;;;;;;;;;20.40;38.94;100342.97;2069720;28;1893;-62
2023/12/02 03:03:32;;;;;;;;;;;;;;;20.40;38.85;100340.09;2069094;28;1941;-62
2023/12/02 03:04:33;;;;;;;;;;;;;;;20.39;38.79;100348.00;2068453;28;1825;-61
2023/12/02 03:05:35;;;;;;;;;;;;;;;20.40;38.88;100349.44;2068425;28;1826;-62
2023/12/02 03:06:36;;;;;;;;;;;;;;;20.41;38.96;100342.31;2065901;28;1901;-62
2023/12/02 03:07:39;;;;;;;;;;;;;;;20.40;38.85;100343.69;2072182;28;1984;-63
2023/12/02 03:08:41;;;;;;;;;;;;;;;20.41;38.86;100359.56;2069094;28;1924;-62
2023/12/02 03:09:42;;;;;;;;;;;;;;;20.40;38.85;100352.31;2071522;28;1853;-61
2023/12/02 03:10:46;;;;;;;;;;;;;;;20.40;38.74;100349.44;2070835;28;1910;-62
2023/12/02 03:11:50;;;;;;;;;;;;;;;20.40;38.76;100346.56;2070315;28;1977;-62
2023/12/02 03:12:52;;;;;;;;;;;;;;;20.41;38.80;100358.81;2071434;28;1968;-62
2023/12/02 03:13:53;;;;;;;;;;;;;;;20.41;38.71;100350.94;2071482;28;1775;-63
2023/12/02 03:14:55;;;;;;;;;;;;;;;20.40;38.69;100358.06;2068717;28;2527;-67
2023/12/02 03:15:56;;;;;;;;;;;;;;;20.41;38.68;100359.56;2070618;28;2016;-68
2023/12/02 03:16:58;;;;;;;;;;;;;;;20.41;38.75;100364.56;2070441;28;1845;-67
2023/12/02 03:17:59;;;;;;;;;;;;;;;20.41;38.79;100371.06;2071101;28;1829;-68
2023/12/02 03:19:01;;;;;;;;;;;;;;;20.41;38.71;100358.81;2069904;28;1854;-62
2023/12/02 03:20:05;;;;;;;;;;;;;;;20.42;38.84;100363.91;2072101;28;2081;-62
2023/12/02 03:21:07;;;;;;;;;;;;;;;20.42;38.79;100366.78;2070357;28;2244;-62
2023/12/02 03:22:08;;;;;;;;;;;;;;;20.43;38.80;100367.53;2069584;28;2021;-63
2023/12/02 03:23:10;;;;;;;;;;;;;;;20.43;38.81;100367.53;2070595;28;2140;-62
2023/12/02 03:24:11;;;;;;;;;;;;;;;20.42;38.86;100366.78;2072706;28;1941;-62
2023/12/02 03:25:13;;;;;;;;;;;;;;;20.42;38.89;100371.81;2070335;28;1893;-62
2023/12/02 03:26:15;;;;;;;;;;;;;;;20.42;38.70;100375.41;2071543;28;1935;-63
2023/12/02 03:27:16;;;;;;;;;;;;;;;20.41;38.81;100376.81;2071837;28;1916;-62
2023/12/02 03:28:18;;;;;;;;;;;;;;;20.42;38.84;100371.81;2069986;28;2234;-62
2023/12/02 03:29:19;;;;;;;;;;;;;;;20.41;38.81;100376.81;2070337;28;2072;-62
2023/12/02 03:30:21;;;;;;;;;;;;;;;20.40;38.84;100381.09;2071999;28;2437;-63
2023/12/02 03:31:22;;;;;;;;;;;;;;;20.41;38.87;100381.81;2068680;28;1940;-62
2023/12/02 03:32:24;;;;;;;;;;;;;;;20.40;38.84;100375.34;2070176;28;2151;-62
2023/12/02 03:33:25;;;;;;;;;;;;;;;20.40;38.79;100374.59;2072404;28;2329;-62
2023/12/02 03:34:27;;;;;;;;;;;;;;;20.40;38.82;100366.72;2070718;28;2913;-67
2023/12/02 03:35:28;;;;;;;;;;;;;;;20.39;38.89;100370.25;2069468;28;1841;-66
2023/12/02 03:36:30;;;;;;;;;;;;;;;20.39;38.76;100368.13;2070223;28;1970;-67
2023/12/02 03:37:32;;;;;;;;;;;;;;;20.39;38.65;100362.38;2071217;28;1896;-67
2023/12/02 03:38:33;;;;;;;;;;;;;;;20.40;38.80;100377.47;2070490;28;1892;-67
2023/12/02 03:39:35;;;;;;;;;;;;;;;20.39;38.73;100382.50;2071015;28;1872;-65
2023/12/02 03:40:36;;;;;;;;;;;;;;;20.39;38.85;100373.88;2071163;28;1829;-66
2023/12/02 03:41:41;;;;;;;;;;;;;;;20.39;38.86;100373.88;2069833;28;1928;-66
2023/12/02 03:42:43;;;;;;;;;;;;;;;20.40;38.88;100374.59;2070757;28;1861;-62
2023/12/02 03:43:44;;;;;;;;;;;;;;;20.39;38.85;100371.00;2070392;28;1869;-62
2023/12/02 03:44:59;;;;;;;;;;;;;;;20.39;38.73;100371.00;2070083;28;1968;-62
2023/12/02 03:46:01;;;;;;;;;;;;;;;20.40;38.77;100372.47;2070124;28;1762;-62
2023/12/02 03:47:03;;;;;;;;;;;;;;;20.41;38.67;100370.31;2071448;28;2051;-62
2023/12/02 03:48:05;;;;;;;;;;;;;;;20.41;38.75;100370.31;2072457;28;1794;-62
2023/12/02 03:49:06;;;;;;;;;;;;;;;20.40;38.64;100369.59;2070104;28;1853;-62
2023/12/02 03:50:09;;;;;;;;;;;;;;;20.41;38.75;100370.31;2069196;28;1896;-62
2023/12/02 03:51:10;;;;;;;;;;;;;;;20.41;38.72;100371.06;2071154;28;1918;-61
2023/12/02 03:52:12;;;;;;;;;;;;;;;20.41;38.77;100373.94;2071080;28;2027;-61
2023/12/02 03:53:13;;;;;;;;;;;;;;;20.41;38.82;100371.06;2071047;28;1911;-61
2023/12/02 03:54:15;;;;;;;;;;;;;;;20.42;38.83;100378.28;2068824;28;1810;-61
2023/12/02 03:55:18;;;;;;;;;;;;;;;20.43;38.80;100370.41;2068342;28;1900;-61
2023/12/02 03:56:20;;;;;;;;;;;;;;;20.44;38.72;100369.00;2067847;28;1973;-61
2023/12/02 03:57:21;;;;;;;;;;;;;;;20.45;38.90;100384.84;2066850;28;1825;-61
2023/12/02 03:58:23;;;;;;;;;;;;;;;20.43;38.59;100382.66;2069870;28;2540;-66
2023/12/02 03:59:25;;;;;;;;;;;;;;;20.43;38.79;100385.53;2071823;28;1849;-69
2023/12/02 04:00:27;;;;;;;;;;;;;;;20.45;38.91;100387.72;2070801;28;2015;-66
2023/12/02 04:01:28;;;;;;;;;;;;;;;20.47;38.71;100391.41;2069735;28;1892;-63
2023/12/02 04:02:30;;;;;;;;;;;;;;;20.37;39.15;100399.66;2072362;28;1841;-62
2023/12/02 04:03:33;;;;;;;;;;;;;;;20.25;39.14;100390.56;2067999;28;1889;-62
2023/12/02 04:04:34;;;;;;;;;;;;;;;20.26;39.09;100401.41;2071174;28;1897;-62
2023/12/02 04:05:36;;;;;;;;;;;;;;;20.29;38.82;100396.47;2069663;28;1872;-62
2023/12/02 04:06:38;;;;;;;;;;;;;;;20.29;38.98;100390.72;2071780;28;2055;-62
2023/12/02 04:07:40;;;;;;;;;;;;;;;20.33;39.04;100393.75;2070454;28;1901;-62
2023/12/02 04:08:41;;;;;;;;;;;;;;;20.36;38.71;100392.41;2071143;28;1908;-62
2023/12/02 04:09:43;;;;;;;;;;;;;;;20.38;38.77;100392.50;2070777;28;2024;-62
2023/12/02 04:10:45;;;;;;;;;;;;;;;20.40;38.77;100391.84;2071396;28;1873;-62
2023/12/02 04:11:46;;;;;;;;;;;;;;;20.40;38.89;100386.84;2069763;28;1961;-62
2023/12/02 04:12:48;;;;;;;;;;;;;;;20.40;38.90;100383.97;2071125;28;1904;-62
2023/12/02 04:13:49;;;;;;;;;;;;;;;20.40;39.00;100381.09;2070836;28;2042;-62
2023/12/02 04:14:51;;;;;;;;;;;;;;;20.41;39.00;100391.19;2070584;28;1944;-62
2023/12/02 04:15:52;;;;;;;;;;;;;;;20.40;38.94;100381.09;2069994;28;1798;-62
2023/12/02 04:16:54;;;;;;;;;;;;;;;20.40;38.92;100375.34;2070015;28;1862;-63
2023/12/02 04:17:55;;;;;;;;;;;;;;;20.41;38.92;100370.31;2070605;28;2040;-62
2023/12/02 04:18:57;;;;;;;;;;;;;;;20.41;38.90;100367.44;2070724;28;2483;-64
2023/12/02 04:19:59;;;;;;;;;;;;;;;20.41;38.93;100347.31;2069875;28;2263;-67
2023/12/02 04:21:00;;;;;;;;;;;;;;;20.41;38.77;100361.69;2069483;28;2121;-67
2023/12/02 04:22:02;;;;;;;;;;;;;;;20.41;38.85;100359.56;2071187;28;1896;-67
2023/12/02 04:23:04;;;;;;;;;;;;;;;20.40;38.95;100358.06;2071978;28;1750;-63
2023/12/02 04:24:05;;;;;;;;;;;;;;;20.41;39.13;100365.31;2070127;28;1865;-62
2023/12/02 04:25:07;;;;;;;;;;;;;;;20.43;38.97;100371.16;2071034;28;1873;-63
2023/12/02 04:26:08;;;;;;;;;;;;;;;20.42;39.15;100369.66;2068111;28;1904;-62
2023/12/02 04:27:10;;;;;;;;;;;;;;;20.41;39.20;100371.06;2070399;28;1840;-62
2023/12/02 04:28:11;;;;;;;;;;;;;;;20.45;39.29;100371.22;2068524;28;1867;-62
2023/12/02 04:29:13;;;;;;;;;;;;;;;20.39;39.43;100373.88;2069008;28;1885;-63
2023/12/02 04:30:14;;;;;;;;;;;;;;;19.93;38.69;100364.88;2069629;28;2524;-66
2023/12/02 04:31:16;;;;;;;;;;;;;;;19.94;38.84;100372.09;2072116;28;2379;-62
2023/12/02 04:32:18;;;;;;;;;;;;;;;20.00;39.07;100372.34;2071107;28;1938;-62
2023/12/02 04:33:19;;;;;;;;;;;;;;;20.09;38.83;100368.41;2071007;28;1799;-62
2023/12/02 04:34:21;;;;;;;;;;;;;;;20.17;39.06;100364.38;2068393;28;1834;-62
2023/12/02 04:35:23;;;;;;;;;;;;;;;20.21;39.01;100367.41;2070491;28;2568;-67
2023/12/02 04:36:24;;;;;;;;;;;;;;;20.26;38.81;100371.91;2068531;28;2652;-66
2023/12/02 04:37:26;;;;;;;;;;;;;;;20.30;38.83;100363.44;2068135;28;1861;-67
2023/12/02 04:38:28;;;;;;;;;;;;;;;20.31;38.71;100362.03;2072391;28;1834;-66
2023/12/02 04:39:29;;;;;;;;;;;;;;;20.35;38.35;100361.47;2070726;28;1834;-61
2023/12/02 04:40:31;;;;;;;;;;;;;;;20.35;38.59;100359.31;2070459;28;1833;-62
2023/12/02 04:41:33;;;;;;;;;;;;;;;20.36;38.82;100355.03;2072200;28;1926;-62
2023/12/02 04:42:34;;;;;;;;;;;;;;;20.36;38.69;100363.66;2071557;28;1858;-62
2023/12/02 04:43:36;;;;;;;;;;;;;;;20.40;38.63;100363.84;2071971;28;1845;-61
2023/12/02 04:44:38;;;;;;;;;;;;;;;20.39;38.75;100362.38;2071551;28;1980;-61
2023/12/02 04:45:39;;;;;;;;;;;;;;;20.40;38.66;100369.59;2072402;28;1897;-61
2023/12/02 04:46:44;;;;;;;;;;;;;;;20.41;38.87;100371.06;2070852;28;1918;-62
2023/12/02 04:47:45;;;;;;;;;;;;;;;20.41;38.79;100370.31;2068451;28;1893;-61
2023/12/02 04:48:47;;;;;;;;;;;;;;;20.41;38.96;100371.06;2071726;28;1913;-62
2023/12/02 04:49:48;;;;;;;;;;;;;;;20.42;39.13;100372.53;2070587;28;1903;-61
2023/12/02 04:50:50;;;;;;;;;;;;;;;20.43;39.14;100373.28;2071263;28;1870;-61
2023/12/02 04:51:52;;;;;;;;;;;;;;;20.43;39.07;100374.03;2069855;28;1958;-62
2023/12/02 04:52:53;;;;;;;;;;;;;;;20.44;39.15;100369.00;2072295;28;1822;-62
2023/12/02 04:53:55;;;;;;;;;;;;;;;20.45;39.12;100370.47;2069457;28;1882;-61
2023/12/02 04:54:57;;;;;;;;;;;;;;;20.45;39.21;100365.47;2070335;28;1888;-62
2023/12/02 04:55:58;;;;;;;;;;;;;;;20.44;39.07;100369.75;2070570;28;1833;-62
2023/12/02 04:57:00;;;;;;;;;;;;;;;20.46;39.00;100371.97;2067755;28;2682;-67
2023/12/02 04:58:02;;;;;;;;;;;;;;;20.47;39.14;100373.44;2070487;28;2473;-66
2023/12/02 04:59:03;;;;;;;;;;;;;;;20.47;39.12;100376.31;2070248;28;1869;-67
2023/12/02 05:00:14;;;;;;;;;;;;;;;20.47;39.06;100379.19;2070090;28;1849;-67
2023/12/02 05:01:16;;;;;;;;;;;;;;;20.47;38.92;100376.31;2071584;28;2076;-62
2023/12/02 05:02:19;;;;;;;;;;;;;;;20.47;39.01;100379.91;2069579;28;1888;-62
2023/12/02 05:03:21;;;;;;;;;;;;;;;20.48;39.23;100383.56;2071239;28;1841;-62
2023/12/02 05:04:22;;;;;;;;;;;;;;;20.48;39.08;100389.31;2069030;28;1778;-62
2023/12/02 05:05:24;;;;;;;;;;;;;;;20.48;39.01;100383.56;2069472;28;1901;-62
2023/12/02 05:06:26;;;;;;;;;;;;;;;20.48;39.10;100390.03;2068878;28;1846;-61
2023/12/02 05:07:28;;;;;;;;;;;;;;;20.49;39.16;100394.38;2070030;28;1924;-62
2023/12/02 05:08:29;;;;;;;;;;;;;;;20.48;39.29;100392.91;2070473;28;1921;-61
2023/12/02 05:09:31;;;;;;;;;;;;;;;20.49;39.11;100396.53;2071481;28;2024;-62
2023/12/02 05:10:32;;;;;;;;;;;;;;;20.49;39.22;100387.88;2067510;28;1999;-62
2023/12/02 05:11:34;;;;;;;;;;;;;;;20.48;39.28;100387.16;2069282;28;1965;-62
2023/12/02 05:12:36;;;;;;;;;;;;;;;20.49;39.12;100387.88;2066757;28;1936;-61
2023/12/02 05:13:37;;;;;;;;;;;;;;;20.49;39.25;100400.13;2067440;28;1770;-61
2023/12/02 05:14:39;;;;;;;;;;;;;;;20.49;39.30;100399.41;2067269;28;2238;-62
2023/12/02 05:15:41;;;;;;;;;;;;;;;20.50;39.22;100401.63;2069051;28;2137;-62
2023/12/02 05:16:45;;;;;;;;;;;;;;;20.49;39.23;100405.16;2069711;28;2028;-62
2023/12/02 05:17:47;;;;;;;;;;;;;;;20.49;38.95;100410.91;2070762;28;1822;-62
2023/12/02 05:18:48;;;;;;;;;;;;;;;20.49;39.28;100408.75;2069943;28;2421;-66
2023/12/02 05:19:50;;;;;;;;;;;;;;;20.49;39.24;100405.88;2070966;28;1988;-66
2023/12/02 05:20:51;;;;;;;;;;;;;;;20.50;39.13;100410.25;2069770;28;2074;-66
2023/12/02 05:21:53;;;;;;;;;;;;;;;20.50;38.97;100413.13;2068722;28;1828;-66